createdAt,value
2022-09-18T00:01:33.245Z,10.50
2022-09-18T00:04:03.098Z,8.90
2022-09-18T00:06:32.420Z,10.50
2022-09-18T00:09:01.436Z,10.40
2022-09-18T00:11:33.260Z,10.50
2022-09-18T00:14:00.351Z,10.50
2022-09-18T00:16:27.948Z,10.50
2022-09-18T00:21:25.003Z,10.50
2022-09-18T00:23:55.458Z,10.60
2022-09-18T00:31:20.879Z,10.50
2022-09-18T00:36:18.486Z,10.40
2022-09-18T00:41:25.382Z,10.40
2022-09-18T00:43:54.544Z,10.30
2022-09-18T00:46:44.117Z,10.30
2022-09-18T00:49:18.809Z,10.30
2022-09-18T00:51:48.258Z,10.20
2022-09-18T00:54:25.755Z,10.20
2022-09-18T00:56:56.711Z,10.10
2022-09-18T00:59:28.459Z,10.10
2022-09-18T01:01:58.046Z,10.10
2022-09-18T01:07:18.258Z,10.10
2022-09-18T01:10:25.053Z,10.10
2022-09-18T01:13:31.933Z,10.10
2022-09-18T01:16:24.394Z,10.10
2022-09-18T01:19:21.491Z,10.10
2022-09-18T01:22:06.804Z,10.10
2022-09-18T01:25:04.441Z,10.10
2022-09-18T01:27:58.964Z,10.10
2022-09-18T01:32:58.570Z,10.20
2022-09-18T01:35:42.074Z,10.20
2022-09-18T01:38:20.485Z,10.20
2022-09-18T01:40:54.951Z,10.20
2022-09-18T01:43:25.256Z,10.20
2022-09-18T01:45:56.043Z,10.20
2022-09-18T01:48:29.410Z,10.20
2022-09-18T01:51:02.242Z,10.20
2022-09-18T01:53:32.957Z,10.20
2022-09-18T01:56:06.341Z,10.20
2022-09-18T01:58:34.749Z,10.20
2022-09-18T02:01:08.312Z,10.20
2022-09-18T02:03:40.064Z,10.20
2022-09-18T02:06:16.933Z,10.20
2022-09-18T02:08:49.694Z,10.20
2022-09-18T02:11:18.908Z,10.20
2022-09-18T02:14:11.426Z,10.20
2022-09-18T02:16:44.947Z,10.20
2022-09-18T02:19:42.883Z,10.20
2022-09-18T02:22:14.579Z,10.20
2022-09-18T02:24:45.829Z,10.20
2022-09-18T02:27:15.566Z,10.20
2022-09-18T02:29:44.295Z,10.20
2022-09-18T02:32:12.271Z,10.20
2022-09-18T02:37:46.726Z,10.20
2022-09-18T02:40:40.429Z,10.20
2022-09-18T02:43:33.652Z,10.20
2022-09-18T02:46:26.691Z,10.10
2022-09-18T02:49:19.772Z,10.10
2022-09-18T02:51:55.289Z,10.10
2022-09-18T02:54:33.270Z,10.10
2022-09-18T02:57:07.335Z,10.10
2022-09-18T02:59:39.497Z,10.10
2022-09-18T03:02:07.751Z,10.10
2022-09-18T03:26:41.310Z,10.20
2022-09-18T03:29:09.889Z,10.20
2022-09-18T03:48:51.725Z,10.20
2022-09-18T03:51:20.143Z,10.20
2022-09-18T03:53:48.235Z,10.10
2022-09-18T04:01:11.128Z,10.10
2022-09-18T04:13:31.797Z,10.10
2022-09-18T04:18:26.449Z,10.10
2022-09-18T04:23:21.100Z,10.10
2022-09-18T04:25:48.690Z,10.10
2022-09-18T04:40:32.740Z,10.10
2022-09-18T05:02:39.866Z,10.30
2022-09-18T05:22:19.647Z,10.30
2022-09-18T05:27:13.964Z,10.40
2022-09-18T05:32:08.469Z,10.50
2022-09-18T05:37:02.824Z,10.50
2022-09-18T05:41:57.239Z,10.50
2022-09-18T05:46:51.683Z,10.60
2022-09-18T05:49:18.813Z,10.50
2022-09-18T06:01:37.031Z,10.70
2022-09-18T06:04:04.450Z,10.70
2022-09-18T06:06:31.527Z,10.80
2022-09-18T06:11:26.114Z,10.80
2022-09-18T06:18:48.126Z,10.80
2022-09-18T06:31:10.892Z,10.90
2022-09-18T06:41:03.336Z,10.90
2022-09-18T06:43:30.895Z,11.00
2022-09-18T06:48:26.698Z,11.00
2022-09-18T06:50:55.454Z,11.00
2022-09-18T06:55:50.933Z,11.00
2022-09-18T06:58:19.094Z,11.10
2022-09-18T07:00:47.176Z,11.10
2022-09-18T07:05:43.090Z,11.10
2022-09-18T07:08:10.589Z,11.20
2022-09-18T07:15:34.225Z,11.30
2022-09-18T07:18:03.565Z,11.30
2022-09-18T07:23:00.819Z,11.30
2022-09-18T07:25:29.860Z,11.40
2022-09-18T07:28:02.238Z,11.40
2022-09-18T07:30:29.705Z,11.40
2022-09-18T07:32:56.806Z,11.40
2022-09-18T07:35:24.175Z,11.40
2022-09-18T07:37:51.229Z,11.40
2022-09-18T07:45:13.379Z,11.60
2022-09-18T07:47:40.346Z,8.60
2022-09-18T07:50:09.329Z,11.60
2022-09-18T08:07:21.650Z,11.70
2022-09-18T08:24:33.333Z,12.10
2022-09-18T08:29:31.421Z,12.30
2022-09-18T08:36:55.516Z,12.60
2022-09-18T08:39:22.697Z,12.70
2022-09-18T08:42:29.485Z,12.80
2022-09-18T08:45:07.759Z,12.70
2022-09-18T08:47:43.879Z,12.60
2022-09-18T08:50:19.173Z,12.70
2022-09-18T08:52:50.725Z,12.70
2022-09-18T08:55:40.152Z,12.70
2022-09-18T08:58:13.389Z,12.90
2022-09-18T09:00:43.047Z,13.00
2022-09-18T09:03:40.789Z,13.10
2022-09-18T09:06:36.643Z,13.20
2022-09-18T09:09:43.418Z,13.10
2022-09-18T09:12:41.218Z,12.90
2022-09-18T09:15:47.948Z,13.00
2022-09-18T09:18:37.405Z,12.90
2022-09-18T09:21:32.361Z,9.40
2022-09-18T09:24:30.016Z,13.10
2022-09-18T09:26:58.603Z,13.20
2022-09-18T09:29:30.553Z,13.30
2022-09-18T09:32:04.631Z,13.40
2022-09-18T09:34:55.569Z,13.50
2022-09-18T09:37:33.162Z,13.50
2022-09-18T09:40:08.300Z,13.50
2022-09-18T09:42:44.199Z,13.50
2022-09-18T09:45:18.223Z,13.60
2022-09-18T09:48:11.173Z,13.60
2022-09-18T09:51:10.229Z,13.80
2022-09-18T09:53:37.828Z,13.70
2022-09-18T09:56:36.613Z,13.80
2022-09-18T09:59:32.978Z,13.70
2022-09-18T10:02:23.375Z,13.80
2022-09-18T10:05:23.694Z,13.70
2022-09-18T10:08:02.713Z,13.80
2022-09-18T10:10:54.509Z,13.90
2022-09-18T10:13:33.980Z,13.90
2022-09-18T10:16:09.658Z,14.10
2022-09-18T10:18:42.177Z,14.10
2022-09-18T10:21:34.536Z,14.00
2022-09-18T10:24:29.152Z,14.00
2022-09-18T10:27:05.098Z,13.90
2022-09-18T10:32:08.195Z,14.00
2022-09-18T10:34:55.875Z,14.10
2022-09-18T10:37:47.200Z,14.20
2022-09-18T10:40:40.470Z,14.40
2022-09-18T10:44:07.197Z,14.50
2022-09-18T10:47:26.791Z,14.70
2022-09-18T10:50:51.754Z,14.70
2022-09-18T10:53:59.123Z,14.80
2022-09-18T10:57:13.870Z,14.90
2022-09-18T11:00:39.222Z,14.90
2022-09-18T11:04:04.401Z,14.90
2022-09-18T11:07:31.029Z,15.00
2022-09-18T11:10:51.109Z,14.90
2022-09-18T11:14:09.197Z,15.10
2022-09-18T11:17:23.806Z,15.00
2022-09-18T11:20:46.031Z,15.00
2022-09-18T11:24:03.051Z,15.00
2022-09-18T11:27:29.722Z,15.10
2022-09-18T11:30:56.387Z,15.20
2022-09-18T11:34:23.031Z,15.20
2022-09-18T11:37:46.091Z,15.50
2022-09-18T11:40:40.851Z,16.10
2022-09-18T11:43:16.048Z,16.00
2022-09-18T11:46:02.717Z,16.00
2022-09-18T11:48:46.163Z,16.20
2022-09-18T11:51:26.888Z,16.40
2022-09-18T11:54:04.614Z,16.60
2022-09-18T11:56:40.762Z,16.50
2022-09-18T11:59:45.516Z,16.30
2022-09-18T12:02:42.282Z,16.20
2022-09-18T12:05:39.406Z,16.40
2022-09-18T12:08:22.717Z,16.40
2022-09-18T12:11:29.431Z,16.60
2022-09-18T12:14:21.960Z,16.40
2022-09-18T12:17:13.012Z,16.30
2022-09-18T12:19:48.406Z,13.20
2022-09-18T12:22:54.135Z,16.70
2022-09-18T12:25:46.406Z,16.40
2022-09-18T12:28:41.727Z,15.80
2022-09-18T12:31:37.762Z,13.30
2022-09-18T12:34:36.158Z,15.00
2022-09-18T12:37:42.975Z,14.50
2022-09-18T12:40:37.121Z,14.20
2022-09-18T12:43:33.588Z,13.90
2022-09-18T12:46:40.312Z,13.60
2022-09-18T12:49:38.057Z,13.40
2022-09-18T12:53:00.510Z,13.30
2022-09-18T12:55:58.714Z,13.20
2022-09-18T12:59:05.525Z,12.90
2022-09-18T13:02:12.256Z,12.70
2022-09-18T13:04:46.828Z,12.30
2022-09-18T13:07:22.045Z,12.00
2022-09-18T13:09:59.537Z,12.10
2022-09-18T13:13:06.494Z,11.80
2022-09-18T13:15:56.594Z,11.80
2022-09-18T13:18:39.210Z,11.70
2022-09-18T13:21:10.341Z,11.60
2022-09-18T13:23:40.584Z,11.60
2022-09-18T13:26:13.146Z,11.60
2022-09-18T13:28:43.296Z,11.60
2022-09-18T13:31:35.292Z,11.70
2022-09-18T13:34:06.933Z,11.70
2022-09-18T13:36:53.859Z,11.80
2022-09-18T13:39:27.110Z,11.70
2022-09-18T13:41:57.473Z,11.80
2022-09-18T13:44:49.345Z,11.80
2022-09-18T13:47:18.369Z,11.80
2022-09-18T13:49:52.834Z,11.90
2022-09-18T13:52:42.417Z,11.90
2022-09-18T13:55:34.140Z,11.90
2022-09-18T13:58:38.910Z,11.90
2022-09-18T14:01:09.079Z,11.90
2022-09-18T14:03:56.096Z,11.90
2022-09-18T14:06:43.832Z,12.00
2022-09-18T14:09:50.495Z,12.00
2022-09-18T14:12:18.842Z,12.00
2022-09-18T14:15:17.946Z,12.00
2022-09-18T14:18:06.963Z,12.00
2022-09-18T14:20:34.949Z,12.00
2022-09-18T14:23:41.697Z,12.00
2022-09-18T14:26:30.473Z,12.00
2022-09-18T14:29:05.267Z,11.90
2022-09-18T14:31:45.545Z,11.90
2022-09-18T14:34:53.943Z,11.80
2022-09-18T14:37:31.300Z,11.80
2022-09-18T14:39:59.270Z,11.80
2022-09-18T14:42:47.229Z,11.80
2022-09-18T14:45:34.839Z,11.80
2022-09-18T14:48:21.844Z,11.80
2022-09-18T14:51:07.359Z,11.80
2022-09-18T14:53:53.151Z,11.80
2022-09-18T14:56:35.073Z,11.70
2022-09-18T14:59:07.310Z,11.70
2022-09-18T15:01:40.754Z,11.60
2022-09-18T15:04:17.252Z,11.60
2022-09-18T15:06:54.437Z,11.60
2022-09-18T15:09:27.449Z,11.60
2022-09-18T15:14:50.332Z,11.60
2022-09-18T15:17:21.397Z,11.60
2022-09-18T15:20:14.213Z,11.60
2022-09-18T15:25:18.160Z,11.50
2022-09-18T15:30:18.789Z,11.50
2022-09-18T15:32:59.540Z,11.50
2022-09-18T15:35:35.039Z,11.40
2022-09-18T15:38:07.574Z,11.40
2022-09-18T15:40:58.719Z,11.40
2022-09-18T15:44:01.353Z,11.40
2022-09-18T15:49:31.319Z,11.40
2022-09-18T15:55:25.062Z,11.40
2022-09-18T15:59:23.033Z,11.40
2022-09-18T16:08:30.651Z,11.30
2022-09-18T16:12:27.584Z,11.30
2022-09-18T16:21:12.262Z,11.20
2022-09-18T16:24:03.802Z,11.10
2022-09-18T16:26:36.349Z,11.10
2022-09-18T16:29:16.113Z,11.20
2022-09-18T16:34:29.675Z,11.20
2022-09-18T16:39:26.665Z,11.10
2022-09-18T16:46:58.943Z,11.00
2022-09-18T16:49:28.525Z,11.00
2022-09-18T16:54:25.671Z,11.00
2022-09-18T16:57:04.307Z,11.00
2022-09-18T16:59:33.128Z,11.00
2022-09-18T17:02:04.561Z,10.90
2022-09-18T17:04:33.310Z,10.90
2022-09-18T17:09:28.173Z,10.80
2022-09-18T17:11:56.115Z,10.80
2022-09-18T17:19:19.211Z,10.80
2022-09-18T17:26:42.404Z,10.70
2022-09-18T17:29:11.392Z,10.70
2022-09-18T17:31:41.553Z,10.70
2022-09-18T17:34:09.218Z,10.70
2022-09-18T17:36:40.313Z,10.60
2022-09-18T17:48:59.118Z,10.60
2022-09-18T17:51:28.976Z,10.60
2022-09-18T17:54:00.125Z,10.60
2022-09-18T17:59:00.392Z,10.50
2022-09-18T18:01:29.153Z,10.50
2022-09-18T18:08:52.403Z,10.50
2022-09-18T18:11:23.265Z,8.80
2022-09-18T18:13:51.780Z,10.60
2022-09-18T18:16:23.421Z,10.60
2022-09-18T18:18:53.102Z,10.50
2022-09-18T18:21:27.625Z,10.50
2022-09-18T18:23:56.828Z,10.60
2022-09-18T18:26:31.135Z,10.50
2022-09-18T18:31:59.094Z,10.50
2022-09-18T18:34:31.776Z,10.50
2022-09-18T18:37:29.203Z,10.50
2022-09-18T18:40:34.558Z,10.50
2022-09-18T18:45:38.838Z,10.50
2022-09-18T18:50:42.623Z,10.40
2022-09-18T18:55:37.065Z,10.40
2022-09-18T19:00:41.426Z,10.40
2022-09-18T19:08:09.448Z,10.40
2022-09-18T19:23:07.032Z,10.30
2022-09-18T19:25:35.108Z,10.30
2022-09-18T19:28:02.442Z,10.30
2022-09-18T19:42:57.032Z,10.10
2022-09-18T19:45:26.940Z,10.10
2022-09-18T19:50:29.722Z,10.00
2022-09-18T19:52:56.756Z,9.00
2022-09-18T19:57:56.380Z,9.90
2022-09-18T20:00:25.127Z,9.90
2022-09-18T20:02:52.735Z,9.90
2022-09-18T20:07:49.554Z,9.90
2022-09-18T20:20:09.692Z,9.80
2022-09-18T20:25:08.856Z,9.90
2022-09-18T20:27:38.260Z,9.90
2022-09-18T20:30:08.853Z,9.80
2022-09-18T20:40:02.493Z,9.90
2022-09-18T20:42:31.743Z,9.90
2022-09-18T20:45:02.326Z,9.90
2022-09-18T20:47:34.954Z,9.90
2022-09-18T20:50:06.734Z,9.90
2022-09-18T20:52:36.347Z,9.90
2022-09-18T20:55:06.602Z,9.90
2022-09-18T21:00:03.129Z,9.80
2022-09-18T21:05:11.407Z,9.80
2022-09-18T21:15:11.860Z,9.80
2022-09-18T21:20:07.170Z,9.80
2022-09-18T21:30:19.928Z,9.80
2022-09-18T21:32:50.822Z,9.80
2022-09-18T21:45:19.815Z,9.60
2022-09-18T21:47:48.204Z,9.70
2022-09-18T21:57:39.168Z,9.70
2022-09-18T22:00:09.407Z,9.70
2022-09-18T22:40:06.321Z,9.70
2022-09-18T23:07:08.148Z,9.70
2022-09-18T23:09:35.230Z,9.70
2022-09-18T23:14:31.377Z,9.60
2022-09-18T23:16:59.878Z,9.50
2022-09-18T23:19:30.761Z,9.60
2022-09-18T23:24:26.108Z,9.40
2022-09-18T23:26:55.796Z,9.50
2022-09-18T23:29:24.547Z,9.40
2022-09-18T23:31:53.668Z,9.40
2022-09-18T23:34:22.746Z,9.40
2022-09-18T23:36:52.412Z,9.40
2022-09-18T23:39:27.069Z,9.40
2022-09-18T23:44:22.890Z,9.30
2022-09-18T23:46:50.375Z,9.40
2022-09-18T23:49:23.618Z,9.30
2022-09-18T23:51:52.768Z,9.40
2022-09-18T23:54:22.403Z,9.30
2022-09-18T23:59:22.460Z,9.30
